sensor_id;sensor_type;location;lat;lon;timestamp;P1;durP1;ratioP1;P2;durP2;ratioP2
23394;SDS011;11870;53.084;18.206;2023-08-01T00:01:32;8.35;;;3.00;;
23394;SDS011;11870;53.084;18.206;2023-08-01T00:03:58;6.32;;;3.00;;
23394;SDS011;11870;53.084;18.206;2023-08-01T00:06:24;6.47;;;3.08;;
23394;SDS011;11870;53.084;18.206;2023-08-01T00:08:51;5.35;;;3.05;;
23394;SDS011;11870;53.084;18.206;2023-08-01T00:11:17;4.15;;;2.65;;
23394;SDS011;11870;53.084;18.206;2023-08-01T00:13:43;7.70;;;3.30;;
23394;SDS011;11870;53.084;18.206;2023-08-01T00:16:09;5.68;;;2.97;;
23394;SDS011;11870;53.084;18.206;2023-08-01T00:18:35;6.65;;;3.15;;
23394;SDS011;11870;53.084;18.206;2023-08-01T00:21:01;6.20;;;3.53;;
23394;SDS011;11870;53.084;18.206;2023-08-01T00:23:28;4.07;;;2.80;;
23394;SDS011;11870;53.084;18.206;2023-08-01T00:25:53;6.40;;;3.22;;
23394;SDS011;11870;53.084;18.206;2023-08-01T00:28:21;5.90;;;2.65;;
23394;SDS011;11870;53.084;18.206;2023-08-01T00:30:47;4.40;;;2.85;;
23394;SDS011;11870;53.084;18.206;2023-08-01T00:33:13;5.32;;;2.83;;
23394;SDS011;11870;53.084;18.206;2023-08-01T00:35:40;4.85;;;2.90;;
23394;SDS011;11870;53.084;18.206;2023-08-01T00:38:06;4.38;;;2.90;;
23394;SDS011;11870;53.084;18.206;2023-08-01T00:40:32;4.35;;;2.72;;
23394;SDS011;11870;53.084;18.206;2023-08-01T00:42:59;4.63;;;2.70;;
23394;SDS011;11870;53.084;18.206;2023-08-01T00:45:28;5.18;;;3.00;;
23394;SDS011;11870;53.084;18.206;2023-08-01T00:47:55;7.20;;;2.97;;
23394;SDS011;11870;53.084;18.206;2023-08-01T00:50:22;6.10;;;3.40;;
23394;SDS011;11870;53.084;18.206;2023-08-01T00:52:49;4.10;;;2.78;;
23394;SDS011;11870;53.084;18.206;2023-08-01T00:55:16;5.30;;;2.97;;
23394;SDS011;11870;53.084;18.206;2023-08-01T00:57:43;6.05;;;2.58;;
23394;SDS011;11870;53.084;18.206;2023-08-01T01:00:09;4.85;;;3.05;;
23394;SDS011;11870;53.084;18.206;2023-08-01T01:02:36;5.70;;;3.10;;
23394;SDS011;11870;53.084;18.206;2023-08-01T01:05:03;9.00;;;3.30;;
23394;SDS011;11870;53.084;18.206;2023-08-01T01:07:30;3.63;;;2.55;;
23394;SDS011;11870;53.084;18.206;2023-08-01T01:10:00;5.88;;;2.70;;
23394;SDS011;11870;53.084;18.206;2023-08-01T01:12:26;6.20;;;2.90;;
23394;SDS011;11870;53.084;18.206;2023-08-01T01:14:52;4.88;;;2.75;;
23394;SDS011;11870;53.084;18.206;2023-08-01T01:17:18;6.03;;;3.10;;
23394;SDS011;11870;53.084;18.206;2023-08-01T01:19:44;6.88;;;2.60;;
23394;SDS011;11870;53.084;18.206;2023-08-01T01:22:10;5.85;;;3.03;;
23394;SDS011;11870;53.084;18.206;2023-08-01T01:24:36;8.27;;;3.72;;
23394;SDS011;11870;53.084;18.206;2023-08-01T01:27:03;6.60;;;3.20;;
23394;SDS011;11870;53.084;18.206;2023-08-01T01:29:31;7.47;;;3.03;;
23394;SDS011;11870;53.084;18.206;2023-08-01T01:31:59;6.57;;;2.97;;
23394;SDS011;11870;53.084;18.206;2023-08-01T01:34:26;5.97;;;3.05;;
23394;SDS011;11870;53.084;18.206;2023-08-01T01:36:55;4.35;;;2.80;;
23394;SDS011;11870;53.084;18.206;2023-08-01T01:39:21;4.78;;;2.75;;
23394;SDS011;11870;53.084;18.206;2023-08-01T01:41:47;3.97;;;3.08;;
23394;SDS011;11870;53.084;18.206;2023-08-01T01:44:12;5.30;;;2.92;;
23394;SDS011;11870;53.084;18.206;2023-08-01T01:46:39;6.07;;;3.30;;
23394;SDS011;11870;53.084;18.206;2023-08-01T01:49:04;4.07;;;2.85;;
23394;SDS011;11870;53.084;18.206;2023-08-01T01:51:30;4.90;;;3.20;;
23394;SDS011;11870;53.084;18.206;2023-08-01T01:53:56;7.30;;;3.53;;
23394;SDS011;11870;53.084;18.206;2023-08-01T01:56:22;3.85;;;2.85;;
23394;SDS011;11870;53.084;18.206;2023-08-01T01:58:48;5.10;;;3.40;;
23394;SDS011;11870;53.084;18.206;2023-08-01T02:01:14;7.38;;;3.72;;
23394;SDS011;11870;53.084;18.206;2023-08-01T02:03:40;6.32;;;3.15;;
23394;SDS011;11870;53.084;18.206;2023-08-01T02:06:08;7.00;;;3.35;;
23394;SDS011;11870;53.084;18.206;2023-08-01T02:08:33;4.68;;;2.88;;
23394;SDS011;11870;53.084;18.206;2023-08-01T02:10:59;6.18;;;3.17;;
23394;SDS011;11870;53.084;18.206;2023-08-01T02:13:26;6.88;;;3.88;;
23394;SDS011;11870;53.084;18.206;2023-08-01T02:15:53;6.38;;;3.33;;
23394;SDS011;11870;53.084;18.206;2023-08-01T02:18:19;9.15;;;3.10;;
23394;SDS011;11870;53.084;18.206;2023-08-01T02:20:46;5.80;;;3.30;;
23394;SDS011;11870;53.084;18.206;2023-08-01T02:23:11;5.38;;;3.10;;
23394;SDS011;11870;53.084;18.206;2023-08-01T02:25:38;5.97;;;3.22;;
23394;SDS011;11870;53.084;18.206;2023-08-01T02:28:05;6.50;;;3.33;;
23394;SDS011;11870;53.084;18.206;2023-08-01T02:30:32;4.10;;;3.13;;
23394;SDS011;11870;53.084;18.206;2023-08-01T02:32:58;6.50;;;3.38;;
23394;SDS011;11870;53.084;18.206;2023-08-01T02:35:24;7.85;;;3.25;;
23394;SDS011;11870;53.084;18.206;2023-08-01T02:37:50;9.20;;;3.10;;
23394;SDS011;11870;53.084;18.206;2023-08-01T02:40:16;10.02;;;3.53;;
23394;SDS011;11870;53.084;18.206;2023-08-01T02:42:42;9.48;;;3.85;;
23394;SDS011;11870;53.084;18.206;2023-08-01T02:45:08;7.70;;;3.53;;
23394;SDS011;11870;53.084;18.206;2023-08-01T02:47:34;7.63;;;3.47;;
23394;SDS011;11870;53.084;18.206;2023-08-01T02:50:00;4.55;;;3.03;;
23394;SDS011;11870;53.084;18.206;2023-08-01T02:52:26;7.40;;;3.40;;
23394;SDS011;11870;53.084;18.206;2023-08-01T02:54:52;6.40;;;3.30;;
23394;SDS011;11870;53.084;18.206;2023-08-01T02:57:19;8.77;;;3.17;;
23394;SDS011;11870;53.084;18.206;2023-08-01T02:59:44;6.18;;;3.40;;
23394;SDS011;11870;53.084;18.206;2023-08-01T03:02:10;6.28;;;3.30;;
23394;SDS011;11870;53.084;18.206;2023-08-01T03:04:36;4.85;;;3.50;;
23394;SDS011;11870;53.084;18.206;2023-08-01T03:07:02;6.93;;;3.58;;
23394;SDS011;11870;53.084;18.206;2023-08-01T03:09:28;5.30;;;3.15;;
23394;SDS011;11870;53.084;18.206;2023-08-01T03:11:54;6.32;;;3.38;;
23394;SDS011;11870;53.084;18.206;2023-08-01T03:14:20;6.35;;;3.30;;
23394;SDS011;11870;53.084;18.206;2023-08-01T03:16:46;7.45;;;3.42;;
23394;SDS011;11870;53.084;18.206;2023-08-01T03:19:12;7.15;;;3.40;;
23394;SDS011;11870;53.084;18.206;2023-08-01T03:21:39;8.57;;;3.33;;
23394;SDS011;11870;53.084;18.206;2023-08-01T03:24:04;4.53;;;3.58;;
23394;SDS011;11870;53.084;18.206;2023-08-01T03:26:34;6.55;;;3.10;;
23394;SDS011;11870;53.084;18.206;2023-08-01T03:29:00;10.98;;;3.80;;
23394;SDS011;11870;53.084;18.206;2023-08-01T03:31:27;7.32;;;3.60;;
23394;SDS011;11870;53.084;18.206;2023-08-01T03:33:53;5.93;;;3.55;;
23394;SDS011;11870;53.084;18.206;2023-08-01T03:36:19;4.90;;;2.97;;
23394;SDS011;11870;53.084;18.206;2023-08-01T03:38:45;9.10;;;3.53;;
23394;SDS011;11870;53.084;18.206;2023-08-01T03:41:12;9.52;;;3.67;;
23394;SDS011;11870;53.084;18.206;2023-08-01T03:43:38;4.88;;;3.40;;
23394;SDS011;11870;53.084;18.206;2023-08-01T03:46:04;7.07;;;3.70;;
23394;SDS011;11870;53.084;18.206;2023-08-01T03:48:30;5.35;;;3.10;;
23394;SDS011;11870;53.084;18.206;2023-08-01T03:50:56;6.90;;;3.50;;
23394;SDS011;11870;53.084;18.206;2023-08-01T03:53:22;6.88;;;3.50;;
23394;SDS011;11870;53.084;18.206;2023-08-01T03:55:48;7.20;;;3.90;;
23394;SDS011;11870;53.084;18.206;2023-08-01T03:58:14;6.35;;;3.80;;
23394;SDS011;11870;53.084;18.206;2023-08-01T04:00:40;5.97;;;3.75;;
23394;SDS011;11870;53.084;18.206;2023-08-01T04:03:06;7.97;;;4.20;;
23394;SDS011;11870;53.084;18.206;2023-08-01T04:05:32;7.57;;;4.03;;
23394;SDS011;11870;53.084;18.206;2023-08-01T04:07:58;9.60;;;4.03;;
23394;SDS011;11870;53.084;18.206;2023-08-01T04:10:25;6.00;;;3.72;;
23394;SDS011;11870;53.084;18.206;2023-08-01T04:12:50;5.93;;;3.85;;
23394;SDS011;11870;53.084;18.206;2023-08-01T04:15:17;8.20;;;4.05;;
23394;SDS011;11870;53.084;18.206;2023-08-01T04:17:43;8.48;;;4.15;;
23394;SDS011;11870;53.084;18.206;2023-08-01T04:20:09;8.20;;;3.83;;
23394;SDS011;11870;53.084;18.206;2023-08-01T04:22:35;9.18;;;4.20;;
23394;SDS011;11870;53.084;18.206;2023-08-01T04:25:01;7.38;;;4.05;;
23394;SDS011;11870;53.084;18.206;2023-08-01T04:27:27;7.18;;;4.10;;
23394;SDS011;11870;53.084;18.206;2023-08-01T04:29:54;6.82;;;4.15;;
23394;SDS011;11870;53.084;18.206;2023-08-01T04:32:21;7.95;;;4.28;;
23394;SDS011;11870;53.084;18.206;2023-08-01T04:34:47;7.25;;;4.10;;
23394;SDS011;11870;53.084;18.206;2023-08-01T04:37:13;8.30;;;4.28;;
23394;SDS011;11870;53.084;18.206;2023-08-01T04:39:39;5.63;;;4.22;;
23394;SDS011;11870;53.084;18.206;2023-08-01T04:42:05;6.47;;;4.07;;
23394;SDS011;11870;53.084;18.206;2023-08-01T04:44:31;9.30;;;4.45;;
23394;SDS011;11870;53.084;18.206;2023-08-01T04:46:57;6.15;;;3.92;;
23394;SDS011;11870;53.084;18.206;2023-08-01T04:49:23;7.10;;;4.35;;
23394;SDS011;11870;53.084;18.206;2023-08-01T04:51:52;11.85;;;4.20;;
23394;SDS011;11870;53.084;18.206;2023-08-01T04:54:18;6.68;;;4.32;;
23394;SDS011;11870;53.084;18.206;2023-08-01T04:56:43;7.97;;;4.45;;
23394;SDS011;11870;53.084;18.206;2023-08-01T04:59:09;6.38;;;4.30;;
23394;SDS011;11870;53.084;18.206;2023-08-01T05:01:35;7.97;;;4.30;;
23394;SDS011;11870;53.084;18.206;2023-08-01T05:04:01;6.47;;;4.28;;
23394;SDS011;11870;53.084;18.206;2023-08-01T05:06:28;9.75;;;4.75;;
23394;SDS011;11870;53.084;18.206;2023-08-01T05:08:54;8.88;;;4.45;;
23394;SDS011;11870;53.084;18.206;2023-08-01T05:11:20;8.90;;;4.72;;
23394;SDS011;11870;53.084;18.206;2023-08-01T05:13:46;7.97;;;4.30;;
23394;SDS011;11870;53.084;18.206;2023-08-01T05:16:12;8.40;;;4.90;;
23394;SDS011;11870;53.084;18.206;2023-08-01T05:18:38;8.32;;;4.40;;
23394;SDS011;11870;53.084;18.206;2023-08-01T05:21:04;10.65;;;4.25;;
23394;SDS011;11870;53.084;18.206;2023-08-01T05:23:30;8.30;;;4.50;;
23394;SDS011;11870;53.084;18.206;2023-08-01T05:25:56;9.80;;;4.68;;
23394;SDS011;11870;53.084;18.206;2023-08-01T05:28:22;6.97;;;4.22;;
23394;SDS011;11870;53.084;18.206;2023-08-01T05:30:48;12.88;;;4.70;;
23394;SDS011;11870;53.084;18.206;2023-08-01T05:33:14;8.13;;;4.63;;
23394;SDS011;11870;53.084;18.206;2023-08-01T05:35:39;8.75;;;4.68;;
23394;SDS011;11870;53.084;18.206;2023-08-01T05:38:05;7.18;;;4.72;;
23394;SDS011;11870;53.084;18.206;2023-08-01T05:40:31;7.78;;;4.60;;
23394;SDS011;11870;53.084;18.206;2023-08-01T05:42:57;8.32;;;4.90;;
23394;SDS011;11870;53.084;18.206;2023-08-01T05:45:23;12.18;;;4.65;;
23394;SDS011;11870;53.084;18.206;2023-08-01T05:47:49;11.43;;;4.88;;
23394;SDS011;11870;53.084;18.206;2023-08-01T05:50:15;6.50;;;4.35;;
23394;SDS011;11870;53.084;18.206;2023-08-01T05:52:41;10.55;;;5.15;;
23394;SDS011;11870;53.084;18.206;2023-08-01T05:55:07;8.07;;;4.85;;
23394;SDS011;11870;53.084;18.206;2023-08-01T05:57:33;10.52;;;5.50;;
23394;SDS011;11870;53.084;18.206;2023-08-01T05:59:59;13.75;;;5.05;;
23394;SDS011;11870;53.084;18.206;2023-08-01T06:02:25;10.60;;;4.85;;
23394;SDS011;11870;53.084;18.206;2023-08-01T06:04:51;9.90;;;5.45;;
23394;SDS011;11870;53.084;18.206;2023-08-01T06:07:17;9.23;;;5.00;;
23394;SDS011;11870;53.084;18.206;2023-08-01T06:09:48;8.48;;;4.82;;
23394;SDS011;11870;53.084;18.206;2023-08-01T06:12:18;8.93;;;4.80;;
23394;SDS011;11870;53.084;18.206;2023-08-01T06:14:44;7.50;;;4.57;;
23394;SDS011;11870;53.084;18.206;2023-08-01T06:17:11;8.90;;;4.82;;
23394;SDS011;11870;53.084;18.206;2023-08-01T06:19:37;8.27;;;4.85;;
23394;SDS011;11870;53.084;18.206;2023-08-01T06:22:03;8.48;;;5.18;;
23394;SDS011;11870;53.084;18.206;2023-08-01T06:24:29;7.95;;;5.05;;
23394;SDS011;11870;53.084;18.206;2023-08-01T06:26:55;7.32;;;4.72;;
23394;SDS011;11870;53.084;18.206;2023-08-01T06:29:21;9.45;;;5.05;;
23394;SDS011;11870;53.084;18.206;2023-08-01T06:31:47;7.43;;;4.97;;
23394;SDS011;11870;53.084;18.206;2023-08-01T06:34:13;7.75;;;4.40;;
23394;SDS011;11870;53.084;18.206;2023-08-01T06:36:39;8.38;;;5.10;;
23394;SDS011;11870;53.084;18.206;2023-08-01T06:39:05;9.30;;;5.47;;
23394;SDS011;11870;53.084;18.206;2023-08-01T06:41:31;8.98;;;4.82;;
23394;SDS011;11870;53.084;18.206;2023-08-01T06:43:57;7.68;;;4.97;;
23394;SDS011;11870;53.084;18.206;2023-08-01T06:46:23;8.85;;;5.53;;
23394;SDS011;11870;53.084;18.206;2023-08-01T06:48:49;9.35;;;5.15;;
23394;SDS011;11870;53.084;18.206;2023-08-01T06:51:15;12.30;;;5.65;;
23394;SDS011;11870;53.084;18.206;2023-08-01T06:53:41;10.32;;;5.03;;
23394;SDS011;11870;53.084;18.206;2023-08-01T06:56:07;8.32;;;4.95;;
23394;SDS011;11870;53.084;18.206;2023-08-01T06:58:32;11.35;;;5.25;;
23394;SDS011;11870;53.084;18.206;2023-08-01T07:00:59;9.15;;;4.70;;
23394;SDS011;11870;53.084;18.206;2023-08-01T07:03:24;11.48;;;5.15;;
23394;SDS011;11870;53.084;18.206;2023-08-01T07:05:50;12.80;;;5.60;;
23394;SDS011;11870;53.084;18.206;2023-08-01T07:08:16;10.88;;;5.28;;
23394;SDS011;11870;53.084;18.206;2023-08-01T07:10:42;9.25;;;5.20;;
23394;SDS011;11870;53.084;18.206;2023-08-01T07:13:08;10.68;;;5.57;;
23394;SDS011;11870;53.084;18.206;2023-08-01T07:15:34;9.20;;;5.07;;
23394;SDS011;11870;53.084;18.206;2023-08-01T07:18:00;11.48;;;5.75;;
23394;SDS011;11870;53.084;18.206;2023-08-01T07:20:26;9.15;;;5.38;;
23394;SDS011;11870;53.084;18.206;2023-08-01T07:22:52;8.27;;;5.30;;
23394;SDS011;11870;53.084;18.206;2023-08-01T07:25:18;9.55;;;5.82;;
23394;SDS011;11870;53.084;18.206;2023-08-01T07:27:45;8.15;;;5.15;;
23394;SDS011;11870;53.084;18.206;2023-08-01T07:30:12;9.07;;;4.68;;
23394;SDS011;11870;53.084;18.206;2023-08-01T07:32:38;9.43;;;4.40;;
23394;SDS011;11870;53.084;18.206;2023-08-01T07:35:04;9.95;;;4.75;;
23394;SDS011;11870;53.084;18.206;2023-08-01T07:37:32;8.05;;;4.57;;
23394;SDS011;11870;53.084;18.206;2023-08-01T07:39:59;11.25;;;5.03;;
23394;SDS011;11870;53.084;18.206;2023-08-01T07:42:24;11.15;;;5.13;;
23394;SDS011;11870;53.084;18.206;2023-08-01T07:44:50;8.80;;;4.20;;
23394;SDS011;11870;53.084;18.206;2023-08-01T07:47:16;7.82;;;5.00;;
23394;SDS011;11870;53.084;18.206;2023-08-01T07:49:42;8.73;;;5.15;;
23394;SDS011;11870;53.084;18.206;2023-08-01T07:52:08;10.30;;;5.13;;
23394;SDS011;11870;53.084;18.206;2023-08-01T07:54:35;7.30;;;4.72;;
23394;SDS011;11870;53.084;18.206;2023-08-01T07:57:01;8.23;;;4.80;;
23394;SDS011;11870;53.084;18.206;2023-08-01T07:59:27;9.05;;;4.70;;
23394;SDS011;11870;53.084;18.206;2023-08-01T08:01:53;8.43;;;4.55;;
23394;SDS011;11870;53.084;18.206;2023-08-01T08:04:19;9.27;;;4.85;;
23394;SDS011;11870;53.084;18.206;2023-08-01T08:06:45;8.52;;;4.80;;
23394;SDS011;11870;53.084;18.206;2023-08-01T08:09:11;9.10;;;4.85;;
23394;SDS011;11870;53.084;18.206;2023-08-01T08:11:38;11.73;;;4.70;;
23394;SDS011;11870;53.084;18.206;2023-08-01T08:14:05;7.80;;;4.88;;
23394;SDS011;11870;53.084;18.206;2023-08-01T08:16:31;8.00;;;4.93;;
23394;SDS011;11870;53.084;18.206;2023-08-01T08:18:57;9.65;;;5.28;;
23394;SDS011;11870;53.084;18.206;2023-08-01T08:21:23;9.52;;;5.03;;
23394;SDS011;11870;53.084;18.206;2023-08-01T08:23:50;9.18;;;5.05;;
23394;SDS011;11870;53.084;18.206;2023-08-01T08:26:16;8.07;;;5.07;;
23394;SDS011;11870;53.084;18.206;2023-08-01T08:28:42;7.82;;;4.60;;
23394;SDS011;11870;53.084;18.206;2023-08-01T08:31:08;7.97;;;4.88;;
23394;SDS011;11870;53.084;18.206;2023-08-01T08:33:34;8.50;;;4.88;;
23394;SDS011;11870;53.084;18.206;2023-08-01T08:36:00;7.63;;;4.85;;
23394;SDS011;11870;53.084;18.206;2023-08-01T08:38:27;9.35;;;4.82;;
23394;SDS011;11870;53.084;18.206;2023-08-01T08:43:36;8.80;;;4.65;;
23394;SDS011;11870;53.084;18.206;2023-08-01T08:46:03;9.10;;;5.15;;
23394;SDS011;11870;53.084;18.206;2023-08-01T08:48:31;9.07;;;4.43;;
23394;SDS011;11870;53.084;18.206;2023-08-01T08:50:58;6.78;;;4.43;;
23394;SDS011;11870;53.084;18.206;2023-08-01T08:53:25;8.68;;;4.40;;
23394;SDS011;11870;53.084;18.206;2023-08-01T08:55:52;7.82;;;4.78;;
23394;SDS011;11870;53.084;18.206;2023-08-01T08:58:18;7.20;;;4.40;;
23394;SDS011;11870;53.084;18.206;2023-08-01T09:00:45;8.30;;;4.40;;
23394;SDS011;11870;53.084;18.206;2023-08-01T09:03:11;8.65;;;4.10;;
23394;SDS011;11870;53.084;18.206;2023-08-01T09:05:40;7.85;;;4.43;;
23394;SDS011;11870;53.084;18.206;2023-08-01T09:08:21;6.53;;;4.05;;
23394;SDS011;11870;53.084;18.206;2023-08-01T09:10:49;7.68;;;4.78;;
23394;SDS011;11870;53.084;18.206;2023-08-01T09:13:15;6.90;;;4.55;;
23394;SDS011;11870;53.084;18.206;2023-08-01T09:15:41;7.38;;;4.53;;
23394;SDS011;11870;53.084;18.206;2023-08-01T09:18:11;7.78;;;4.35;;
23394;SDS011;11870;53.084;18.206;2023-08-01T09:20:44;8.50;;;4.72;;
23394;SDS011;11870;53.084;18.206;2023-08-01T09:23:12;6.32;;;4.10;;
23394;SDS011;11870;53.084;18.206;2023-08-01T09:25:39;9.38;;;3.80;;
23394;SDS011;11870;53.084;18.206;2023-08-01T09:28:26;6.28;;;3.97;;
23394;SDS011;11870;53.084;18.206;2023-08-01T09:30:53;5.05;;;3.90;;
23394;SDS011;11870;53.084;18.206;2023-08-01T09:33:21;10.00;;;4.40;;
23394;SDS011;11870;53.084;18.206;2023-08-01T09:35:50;8.05;;;4.00;;
23394;SDS011;11870;53.084;18.206;2023-08-01T09:38:17;5.47;;;4.07;;
23394;SDS011;11870;53.084;18.206;2023-08-01T09:40:44;8.20;;;4.40;;
23394;SDS011;11870;53.084;18.206;2023-08-01T09:43:11;6.18;;;3.95;;
23394;SDS011;11870;53.084;18.206;2023-08-01T09:45:38;5.07;;;3.92;;
23394;SDS011;11870;53.084;18.206;2023-08-01T09:48:22;6.68;;;3.95;;
23394;SDS011;11870;53.084;18.206;2023-08-01T09:50:50;5.95;;;3.78;;
23394;SDS011;11870;53.084;18.206;2023-08-01T09:53:16;5.47;;;4.05;;
23394;SDS011;11870;53.084;18.206;2023-08-01T09:55:42;8.07;;;4.45;;
23394;SDS011;11870;53.084;18.206;2023-08-01T09:58:14;6.85;;;4.28;;
23394;SDS011;11870;53.084;18.206;2023-08-01T10:00:46;7.97;;;4.75;;
23394;SDS011;11870;53.084;18.206;2023-08-01T10:03:13;9.00;;;4.40;;
23394;SDS011;11870;53.084;18.206;2023-08-01T10:05:40;6.75;;;4.15;;
23394;SDS011;11870;53.084;18.206;2023-08-01T10:08:07;8.68;;;4.35;;
23394;SDS011;11870;53.084;18.206;2023-08-01T10:10:35;7.00;;;4.30;;
23394;SDS011;11870;53.084;18.206;2023-08-01T10:13:02;6.88;;;4.38;;
23394;SDS011;11870;53.084;18.206;2023-08-01T10:15:28;7.15;;;4.10;;
23394;SDS011;11870;53.084;18.206;2023-08-01T10:17:56;5.78;;;4.50;;
23394;SDS011;11870;53.084;18.206;2023-08-01T10:20:22;8.98;;;4.63;;
23394;SDS011;11870;53.084;18.206;2023-08-01T10:22:49;8.18;;;4.72;;
23394;SDS011;11870;53.084;18.206;2023-08-01T10:25:19;7.65;;;5.07;;
23394;SDS011;11870;53.084;18.206;2023-08-01T10:27:59;7.40;;;4.47;;
23394;SDS011;11870;53.084;18.206;2023-08-01T10:30:29;9.15;;;5.20;;
23394;SDS011;11870;53.084;18.206;2023-08-01T10:32:56;7.82;;;4.75;;
23394;SDS011;11870;53.084;18.206;2023-08-01T10:35:35;7.60;;;4.57;;
23394;SDS011;11870;53.084;18.206;2023-08-01T10:38:04;7.93;;;4.32;;
23394;SDS011;11870;53.084;18.206;2023-08-01T10:40:38;6.47;;;4.28;;
23394;SDS011;11870;53.084;18.206;2023-08-01T10:43:05;5.70;;;3.55;;
23394;SDS011;11870;53.084;18.206;2023-08-01T10:45:44;8.50;;;4.20;;
23394;SDS011;11870;53.084;18.206;2023-08-01T10:48:10;5.35;;;3.83;;
23394;SDS011;11870;53.084;18.206;2023-08-01T10:50:36;6.28;;;3.20;;
23394;SDS011;11870;53.084;18.206;2023-08-01T10:53:06;7.03;;;3.50;;
23394;SDS011;11870;53.084;18.206;2023-08-01T10:55:40;5.72;;;3.38;;
23394;SDS011;11870;53.084;18.206;2023-08-01T10:58:07;6.30;;;3.47;;
23394;SDS011;11870;53.084;18.206;2023-08-01T11:00:33;7.35;;;3.35;;
23394;SDS011;11870;53.084;18.206;2023-08-01T11:02:59;5.38;;;3.35;;
23394;SDS011;11870;53.084;18.206;2023-08-01T11:05:25;6.85;;;3.20;;
23394;SDS011;11870;53.084;18.206;2023-08-01T11:07:54;7.45;;;3.13;;
23394;SDS011;11870;53.084;18.206;2023-08-01T11:10:28;5.53;;;3.40;;
23394;SDS011;11870;53.084;18.206;2023-08-01T11:12:57;5.05;;;3.10;;
23394;SDS011;11870;53.084;18.206;2023-08-01T11:15:24;6.05;;;3.35;;
23394;SDS011;11870;53.084;18.206;2023-08-01T11:17:50;4.68;;;3.20;;
23394;SDS011;11870;53.084;18.206;2023-08-01T11:20:21;4.85;;;3.33;;
23394;SDS011;11870;53.084;18.206;2023-08-01T11:23:00;5.22;;;3.00;;
23394;SDS011;11870;53.084;18.206;2023-08-01T11:25:37;5.25;;;3.47;;
23394;SDS011;11870;53.084;18.206;2023-08-01T11:28:13;4.53;;;3.30;;
23394;SDS011;11870;53.084;18.206;2023-08-01T11:30:40;6.82;;;3.80;;
23394;SDS011;11870;53.084;18.206;2023-08-01T11:35:53;6.45;;;4.20;;
23394;SDS011;11870;53.084;18.206;2023-08-01T11:38:23;6.82;;;4.68;;
23394;SDS011;11870;53.084;18.206;2023-08-01T11:40:51;8.15;;;4.45;;
23394;SDS011;11870;53.084;18.206;2023-08-01T11:43:17;6.97;;;4.72;;
23394;SDS011;11870;53.084;18.206;2023-08-01T11:45:53;6.78;;;4.88;;
23394;SDS011;11870;53.084;18.206;2023-08-01T11:48:21;8.07;;;5.38;;
23394;SDS011;11870;53.084;18.206;2023-08-01T11:50:48;9.90;;;5.63;;
23394;SDS011;11870;53.084;18.206;2023-08-01T11:53:22;9.57;;;5.80;;
23394;SDS011;11870;53.084;18.206;2023-08-01T11:55:49;8.13;;;6.25;;
23394;SDS011;11870;53.084;18.206;2023-08-01T11:58:28;7.60;;;5.78;;
23394;SDS011;11870;53.084;18.206;2023-08-01T12:01:08;7.72;;;5.25;;
23394;SDS011;11870;53.084;18.206;2023-08-01T12:03:47;7.90;;;4.93;;
23394;SDS011;11870;53.084;18.206;2023-08-01T12:06:15;7.95;;;5.13;;
23394;SDS011;11870;53.084;18.206;2023-08-01T12:08:42;6.93;;;4.75;;
23394;SDS011;11870;53.084;18.206;2023-08-01T12:11:28;7.70;;;5.13;;
23394;SDS011;11870;53.084;18.206;2023-08-01T12:14:08;7.85;;;5.50;;
23394;SDS011;11870;53.084;18.206;2023-08-01T12:16:41;9.73;;;5.50;;
23394;SDS011;11870;53.084;18.206;2023-08-01T12:19:18;7.63;;;5.55;;
23394;SDS011;11870;53.084;18.206;2023-08-01T12:21:44;8.80;;;5.55;;
23394;SDS011;11870;53.084;18.206;2023-08-01T12:24:11;7.35;;;5.70;;
23394;SDS011;11870;53.084;18.206;2023-08-01T12:26:37;9.55;;;6.30;;
23394;SDS011;11870;53.084;18.206;2023-08-01T12:29:04;10.25;;;5.10;;
23394;SDS011;11870;53.084;18.206;2023-08-01T12:31:30;7.60;;;5.20;;
23394;SDS011;11870;53.084;18.206;2023-08-01T12:33:56;6.28;;;4.75;;
23394;SDS011;11870;53.084;18.206;2023-08-01T12:36:22;6.68;;;5.03;;
23394;SDS011;11870;53.084;18.206;2023-08-01T12:38:49;7.00;;;4.88;;
23394;SDS011;11870;53.084;18.206;2023-08-01T12:41:15;9.55;;;4.70;;
23394;SDS011;11870;53.084;18.206;2023-08-01T12:43:41;8.20;;;4.85;;
23394;SDS011;11870;53.084;18.206;2023-08-01T12:46:08;9.20;;;5.28;;
23394;SDS011;11870;53.084;18.206;2023-08-01T12:48:34;7.55;;;4.82;;
23394;SDS011;11870;53.084;18.206;2023-08-01T12:51:00;8.30;;;4.80;;
23394;SDS011;11870;53.084;18.206;2023-08-01T12:53:28;7.05;;;4.70;;
23394;SDS011;11870;53.084;18.206;2023-08-01T12:55:53;6.90;;;4.85;;
23394;SDS011;11870;53.084;18.206;2023-08-01T12:58:19;7.38;;;4.70;;
23394;SDS011;11870;53.084;18.206;2023-08-01T13:00:45;8.40;;;5.40;;
23394;SDS011;11870;53.084;18.206;2023-08-01T13:03:12;8.30;;;5.10;;
23394;SDS011;11870;53.084;18.206;2023-08-01T13:05:39;7.82;;;4.93;;
23394;SDS011;11870;53.084;18.206;2023-08-01T13:08:06;7.40;;;5.20;;
23394;SDS011;11870;53.084;18.206;2023-08-01T13:10:38;8.45;;;5.32;;
23394;SDS011;11870;53.084;18.206;2023-08-01T13:13:04;7.20;;;5.03;;
23394;SDS011;11870;53.084;18.206;2023-08-01T13:15:30;9.13;;;5.38;;
23394;SDS011;11870;53.084;18.206;2023-08-01T13:17:56;7.28;;;4.93;;
23394;SDS011;11870;53.084;18.206;2023-08-01T13:20:22;6.47;;;5.20;;
23394;SDS011;11870;53.084;18.206;2023-08-01T13:22:49;8.95;;;5.32;;
23394;SDS011;11870;53.084;18.206;2023-08-01T13:25:16;10.32;;;5.25;;
23394;SDS011;11870;53.084;18.206;2023-08-01T13:27:43;7.43;;;5.35;;
23394;SDS011;11870;53.084;18.206;2023-08-01T13:30:09;8.43;;;5.13;;
23394;SDS011;11870;53.084;18.206;2023-08-01T13:32:40;8.68;;;5.03;;
23394;SDS011;11870;53.084;18.206;2023-08-01T13:35:06;7.60;;;5.03;;
23394;SDS011;11870;53.084;18.206;2023-08-01T13:37:32;6.38;;;4.38;;
23394;SDS011;11870;53.084;18.206;2023-08-01T13:39:58;8.05;;;5.20;;
23394;SDS011;11870;53.084;18.206;2023-08-01T13:42:24;8.68;;;4.78;;
23394;SDS011;11870;53.084;18.206;2023-08-01T13:44:50;7.78;;;5.07;;
23394;SDS011;11870;53.084;18.206;2023-08-01T13:47:16;8.60;;;5.35;;
23394;SDS011;11870;53.084;18.206;2023-08-01T13:49:42;9.10;;;4.75;;
23394;SDS011;11870;53.084;18.206;2023-08-01T13:52:08;8.02;;;5.15;;
23394;SDS011;11870;53.084;18.206;2023-08-01T13:54:34;9.02;;;5.03;;
23394;SDS011;11870;53.084;18.206;2023-08-01T13:57:01;9.98;;;4.68;;
23394;SDS011;11870;53.084;18.206;2023-08-01T13:59:28;7.18;;;4.47;;
23394;SDS011;11870;53.084;18.206;2023-08-01T14:01:56;8.50;;;5.35;;
23394;SDS011;11870;53.084;18.206;2023-08-01T14:04:22;6.70;;;4.60;;
23394;SDS011;11870;53.084;18.206;2023-08-01T14:06:48;9.48;;;4.70;;
23394;SDS011;11870;53.084;18.206;2023-08-01T14:09:14;10.35;;;4.88;;
23394;SDS011;11870;53.084;18.206;2023-08-01T14:11:40;7.90;;;5.13;;
23394;SDS011;11870;53.084;18.206;2023-08-01T14:14:06;8.68;;;4.70;;
23394;SDS011;11870;53.084;18.206;2023-08-01T14:16:32;9.18;;;4.88;;
23394;SDS011;11870;53.084;18.206;2023-08-01T14:18:58;9.23;;;4.60;;
23394;SDS011;11870;53.084;18.206;2023-08-01T14:21:26;6.30;;;4.45;;
23394;SDS011;11870;53.084;18.206;2023-08-01T14:23:52;6.28;;;4.25;;
23394;SDS011;11870;53.084;18.206;2023-08-01T14:26:18;9.07;;;4.60;;
23394;SDS011;11870;53.084;18.206;2023-08-01T14:28:44;6.88;;;4.32;;
23394;SDS011;11870;53.084;18.206;2023-08-01T14:31:11;9.00;;;4.38;;
23394;SDS011;11870;53.084;18.206;2023-08-01T14:33:37;7.28;;;4.22;;
23394;SDS011;11870;53.084;18.206;2023-08-01T14:36:07;6.95;;;4.30;;
23394;SDS011;11870;53.084;18.206;2023-08-01T14:38:34;7.00;;;4.10;;